sensor_id;sensor_type;location;lat;lon;timestamp;temperature;humidity
25214;DHT22;13160;51.834;4.706;2022-10-18T01:14:17;15.10;99.90
25214;DHT22;13160;51.834;4.706;2022-10-18T08:05:24;12.90;99.90
25214;DHT22;13160;51.834;4.706;2022-10-18T08:07:56;13.00;99.90
25214;DHT22;13160;51.834;4.706;2022-10-18T08:10:31;13.10;99.90
25214;DHT22;13160;51.834;4.706;2022-10-18T08:13:02;13.10;99.90
25214;DHT22;13160;51.834;4.706;2022-10-18T08:15:33;13.20;99.90
25214;DHT22;13160;51.834;4.706;2022-10-18T08:18:05;13.30;99.90
25214;DHT22;13160;51.834;4.706;2022-10-18T08:20:41;13.40;99.90
25214;DHT22;13160;51.834;4.706;2022-10-18T08:23:19;13.50;99.90
25214;DHT22;13160;51.834;4.706;2022-10-18T08:25:48;13.60;99.90
25214;DHT22;13160;51.834;4.706;2022-10-18T08:28:18;13.70;99.90
25214;DHT22;13160;51.834;4.706;2022-10-18T08:31:11;13.80;99.90
25214;DHT22;13160;51.834;4.706;2022-10-18T08:33:43;13.90;99.90
25214;DHT22;13160;51.834;4.706;2022-10-18T08:36:15;14.00;99.90
25214;DHT22;13160;51.834;4.706;2022-10-18T08:38:45;14.10;99.90
25214;DHT22;13160;51.834;4.706;2022-10-18T08:41:45;14.20;99.90
25214;DHT22;13160;51.834;4.706;2022-10-18T08:44:21;14.30;99.90
25214;DHT22;13160;51.834;4.706;2022-10-18T08:46:58;14.40;99.90
25214;DHT22;13160;51.834;4.706;2022-10-18T08:49:35;14.40;99.90
25214;DHT22;13160;51.834;4.706;2022-10-18T08:52:27;14.50;99.90
25214;DHT22;13160;51.834;4.706;2022-10-18T08:55:20;14.60;99.90
25214;DHT22;13160;51.834;4.706;2022-10-18T08:58:16;14.70;99.90
25214;DHT22;13160;51.834;4.706;2022-10-18T09:01:24;14.80;99.90
25214;DHT22;13160;51.834;4.706;2022-10-18T09:04:16;14.80;99.90
25214;DHT22;13160;51.834;4.706;2022-10-18T09:07:01;14.90;99.90
25214;DHT22;13160;51.834;4.706;2022-10-18T09:09:45;15.00;99.90
25214;DHT22;13160;51.834;4.706;2022-10-18T09:12:34;15.10;99.90
25214;DHT22;13160;51.834;4.706;2022-10-18T09:15:19;15.10;99.90
25214;DHT22;13160;51.834;4.706;2022-10-18T09:18:08;15.10;99.90
25214;DHT22;13160;51.834;4.706;2022-10-18T09:20:49;15.20;99.90
25214;DHT22;13160;51.834;4.706;2022-10-18T09:23:31;15.30;99.90
25214;DHT22;13160;51.834;4.706;2022-10-18T10:32:19;16.90;99.90
25214;DHT22;13160;51.834;4.706;2022-10-18T10:34:48;17.00;99.90
25214;DHT22;13160;51.834;4.706;2022-10-18T10:37:38;17.00;99.90
25214;DHT22;13160;51.834;4.706;2022-10-18T10:40:15;17.20;99.90
25214;DHT22;13160;51.834;4.706;2022-10-18T10:43:13;17.20;99.90
25214;DHT22;13160;51.834;4.706;2022-10-18T10:46:06;17.30;99.90
25214;DHT22;13160;51.834;4.706;2022-10-18T10:52:12;17.50;99.90
25214;DHT22;13160;51.834;4.706;2022-10-18T10:54:56;17.50;99.90
25214;DHT22;13160;51.834;4.706;2022-10-18T10:57:43;17.60;99.90
25214;DHT22;13160;51.834;4.706;2022-10-18T11:00:35;17.70;99.90
25214;DHT22;13160;51.834;4.706;2022-10-18T11:03:12;17.70;99.90
25214;DHT22;13160;51.834;4.706;2022-10-18T11:05:57;17.80;99.90
25214;DHT22;13160;51.834;4.706;2022-10-18T11:08:30;17.80;99.90
25214;DHT22;13160;51.834;4.706;2022-10-18T11:11:04;17.80;99.90
25214;DHT22;13160;51.834;4.706;2022-10-18T11:13:47;17.90;99.90
